Time;durP1;ratioP1;P1;durP2;ratioP2;P2;SDS_P1;SDS_P2;PMS_P1;PMS_P2;Temp;Humidity;BMP_temperature;BMP_pressure;BME280_temperature;BME280_humidity;BME280_pressure;Samples;Min_cycle;Max_cycle;Signal;HPM_P1;HPM_P2
2020/08/16 00:01:08;;;;;;;1.99;1.85;;;;;;;23.75;71.08;100013.05;;;;-52
2020/08/16 00:04:08;;;;;;;2.16;1.89;;;;;;;23.75;71.07;100014.29;;;;-51
2020/08/16 00:07:08;;;;;;;2.43;1.81;;;;;;;23.75;71.13;100011.67;;;;-51
2020/08/16 00:10:09;;;;;;;2.11;1.91;;;;;;;23.74;71.03;100010.37;;;;-51
2020/08/16 00:13:09;;;;;;;2.19;1.99;;;;;;;23.74;71.07;100007.58;;;;-51
2020/08/16 00:16:09;;;;;;;2.16;1.96;;;;;;;23.73;71.14;100008.16;;;;-50
2020/08/16 00:19:09;;;;;;;2.09;1.83;;;;;;;23.73;71.08;100012.25;;;;-51
2020/08/16 00:22:09;;;;;;;2.12;1.92;;;;;;;23.73;71.03;100011.88;;;;-51
2020/08/16 00:25:08;;;;;;;2.03;1.91;;;;;;;23.72;71.04;100011.47;;;;-51
2020/08/16 00:28:08;;;;;;;2.45;1.93;;;;;;;23.72;71.11;100013.03;;;;-51
2020/08/16 00:31:09;;;;;;;2.19;1.97;;;;;;;23.72;71.01;100017.94;;;;-50
2020/08/16 00:34:08;;;;;;;3.29;2.07;;;;;;;23.72;71.03;100014.41;;;;-51
2020/08/16 00:37:08;;;;;;;2.11;1.96;;;;;;;23.71;71.04;100006.73;;;;-51
2020/08/16 00:40:08;;;;;;;1.95;1.81;;;;;;;23.70;71.06;99998.33;;;;-51
2020/08/16 00:43:09;;;;;;;2.04;1.84;;;;;;;23.70;71.03;99995.23;;;;-51
2020/08/16 00:46:08;;;;;;;2.20;1.99;;;;;;;23.69;71.07;99990.64;;;;-51
2020/08/16 00:49:08;;;;;;;2.00;1.90;;;;;;;23.69;71.07;99989.82;;;;-51
2020/08/16 00:52:09;;;;;;;2.21;2.01;;;;;;;23.69;71.04;99987.04;;;;-51
2020/08/16 00:55:09;;;;;;;1.89;1.79;;;;;;;23.68;71.00;99982.91;;;;-51
2020/08/16 00:58:08;;;;;;;2.11;1.91;;;;;;;23.68;71.00;99986.27;;;;-51
2020/08/16 01:01:08;;;;;;;2.19;1.99;;;;;;;23.68;71.02;99988.46;;;;-51
2020/08/16 01:04:08;;;;;;;1.93;1.83;;;;;;;23.67;70.98;99988.08;;;;-50
2020/08/16 01:07:08;;;;;;;2.50;2.13;;;;;;;23.67;71.02;99988.55;;;;-51
2020/08/16 01:10:08;;;;;;;2.17;1.97;;;;;;;23.67;71.03;99990.38;;;;-51
2020/08/16 01:13:08;;;;;;;2.15;1.95;;;;;;;23.67;71.03;99991.52;;;;-50
2020/08/16 01:16:08;;;;;;;2.21;2.01;;;;;;;23.66;70.97;99990.22;;;;-51
2020/08/16 01:19:08;;;;;;;1.95;1.85;;;;;;;23.66;71.09;99989.64;;;;-50
2020/08/16 01:22:08;;;;;;;2.03;1.87;;;;;;;23.65;71.01;99988.42;;;;-51
2020/08/16 01:25:09;;;;;;;2.04;1.89;;;;;;;23.65;71.00;99985.01;;;;-51
2020/08/16 01:28:08;;;;;;;2.09;1.95;;;;;;;23.65;71.00;99985.59;;;;-51
2020/08/16 01:31:08;;;;;;;2.41;1.98;;;;;;;23.65;70.98;99984.35;;;;-52
2020/08/16 01:34:08;;;;;;;2.08;1.95;;;;;;;23.64;70.92;99977.75;;;;-51
2020/08/16 01:37:08;;;;;;;2.03;1.91;;;;;;;23.64;70.98;99976.86;;;;-51
2020/08/16 01:40:08;;;;;;;1.85;1.75;;;;;;;23.64;70.94;99978.88;;;;-51
2020/08/16 01:43:09;;;;;;;2.31;2.11;;;;;;;23.63;70.94;99978.32;;;;-50
2020/08/16 01:46:08;;;;;;;2.25;1.91;;;;;;;23.63;70.95;99978.17;;;;-52
2020/08/16 01:49:08;;;;;;;2.14;1.94;;;;;;;23.62;71.01;99982.61;;;;-51
2020/08/16 01:52:08;;;;;;;2.09;1.89;;;;;;;23.63;70.98;99983.17;;;;-50
2020/08/16 01:55:08;;;;;;;2.31;2.04;;;;;;;23.62;70.97;99980.64;;;;-52
2020/08/16 01:58:08;;;;;;;2.09;1.90;;;;;;;23.62;70.98;99982.72;;;;-51
2020/08/16 02:01:08;;;;;;;2.27;2.00;;;;;;;23.62;71.01;99981.08;;;;-51
2020/08/16 02:04:08;;;;;;;2.05;1.89;;;;;;;23.62;71.03;99980.26;;;;-51
2020/08/16 02:07:09;;;;;;;2.06;1.92;;;;;;;23.61;71.04;99975.34;;;;-50
2020/08/16 02:10:08;;;;;;;2.01;1.81;;;;;;;23.61;71.05;99972.65;;;;-51
2020/08/16 02:13:08;;;;;;;2.10;1.87;;;;;;;23.60;71.01;99967.17;;;;-51
2020/08/16 02:16:08;;;;;;;2.10;2.00;;;;;;;23.60;71.01;99965.22;;;;-51
2020/08/16 02:19:08;;;;;;;2.03;1.83;;;;;;;23.60;71.02;99962.92;;;;-51
2020/08/16 02:22:08;;;;;;;1.92;1.81;;;;;;;23.60;71.01;99962.77;;;;-51
2020/08/16 02:25:08;;;;;;;2.05;1.85;;;;;;;23.60;70.99;99956.06;;;;-51
2020/08/16 02:28:08;;;;;;;2.00;1.90;;;;;;;23.59;71.01;99949.45;;;;-51
2020/08/16 02:31:08;;;;;;;2.09;1.92;;;;;;;23.59;71.04;99947.80;;;;-51
2020/08/16 02:34:08;;;;;;;1.99;1.89;;;;;;;23.59;71.09;99947.97;;;;-51
2020/08/16 02:37:08;;;;;;;2.00;1.90;;;;;;;23.58;71.04;99948.73;;;;-51
2020/08/16 02:40:08;;;;;;;2.13;1.93;;;;;;;23.58;71.03;99948.91;;;;-50
2020/08/16 02:43:08;;;;;;;2.13;1.93;;;;;;;23.58;71.09;99948.49;;;;-51
2020/08/16 02:46:09;;;;;;;2.46;1.90;;;;;;;23.58;71.09;99951.78;;;;-51
2020/08/16 02:49:08;;;;;;;2.14;1.98;;;;;;;23.57;71.09;99949.89;;;;-50
2020/08/16 02:52:08;;;;;;;2.03;1.83;;;;;;;23.57;71.06;99947.61;;;;-50
2020/08/16 02:55:08;;;;;;;1.98;1.87;;;;;;;23.57;71.11;99945.49;;;;-51
2020/08/16 02:58:09;;;;;;;2.01;1.85;;;;;;;23.56;71.11;99939.95;;;;-51
2020/08/16 03:01:08;;;;;;;1.92;1.75;;;;;;;23.56;71.12;99939.13;;;;-51
2020/08/16 03:04:08;;;;;;;2.29;2.05;;;;;;;23.56;71.10;99936.09;;;;-51
2020/08/16 03:07:08;;;;;;;2.11;1.91;;;;;;;23.55;71.01;99934.64;;;;-51
2020/08/16 03:10:08;;;;;;;2.37;2.17;;;;;;;23.55;71.04;99935.12;;;;-51
2020/08/16 03:13:08;;;;;;;2.00;1.90;;;;;;;23.55;71.07;99931.45;;;;-51
2020/08/16 03:16:08;;;;;;;2.00;1.90;;;;;;;23.55;71.01;99929.58;;;;-51
2020/08/16 03:19:08;;;;;;;2.21;2.01;;;;;;;23.55;71.06;99931.70;;;;-51
2020/08/16 03:22:08;;;;;;;2.45;2.06;;;;;;;23.54;71.05;99932.28;;;;-51
2020/08/16 03:25:08;;;;;;;2.32;2.12;;;;;;;23.53;71.00;99932.87;;;;-51
2020/08/16 03:28:08;;;;;;;2.10;1.97;;;;;;;23.53;71.02;99933.69;;;;-51
2020/08/16 03:31:08;;;;;;;2.39;2.19;;;;;;;23.53;71.06;99939.92;;;;-50
2020/08/16 03:34:09;;;;;;;2.23;1.99;;;;;;;23.53;71.08;99943.44;;;;-52
2020/08/16 03:37:08;;;;;;;2.10;2.00;;;;;;;23.53;71.07;99938.45;;;;-51
2020/08/16 03:40:08;;;;;;;2.24;2.11;;;;;;;23.53;71.06;99944.32;;;;-50
2020/08/16 03:43:08;;;;;;;2.16;1.97;;;;;;;23.52;71.08;99943.70;;;;-51
2020/08/16 03:46:09;;;;;;;2.13;1.98;;;;;;;23.52;71.08;99946.64;;;;-50
2020/08/16 03:49:08;;;;;;;2.09;1.99;;;;;;;23.51;71.04;99943.53;;;;-52
2020/08/16 03:52:08;;;;;;;2.28;2.11;;;;;;;23.52;71.08;99947.55;;;;-50
2020/08/16 03:55:08;;;;;;;2.24;2.11;;;;;;;23.51;71.12;99944.69;;;;-51
2020/08/16 03:58:08;;;;;;;2.16;1.96;;;;;;;23.50;71.07;99947.73;;;;-50
2020/08/16 04:01:08;;;;;;;2.09;1.90;;;;;;;23.51;71.07;99948.94;;;;-50
2020/08/16 04:04:08;;;;;;;2.14;1.95;;;;;;;23.50;71.08;99954.84;;;;-50
2020/08/16 04:07:09;;;;;;;2.23;2.03;;;;;;;23.50;71.10;99961.31;;;;-51
2020/08/16 04:10:08;;;;;;;2.39;2.19;;;;;;;23.49;71.09;99961.09;;;;-50
2020/08/16 04:13:08;;;;;;;2.12;2.01;;;;;;;23.50;71.08;99961.66;;;;-51
2020/08/16 04:16:08;;;;;;;2.25;2.05;;;;;;;23.49;71.10;99958.23;;;;-51
2020/08/16 04:19:08;;;;;;;2.13;1.93;;;;;;;23.50;71.12;99960.51;;;;-50
2020/08/16 04:22:08;;;;;;;2.11;2.01;;;;;;;23.49;71.09;99965.02;;;;-50
2020/08/16 04:25:08;;;;;;;2.16;1.99;;;;;;;23.49;71.10;99968.77;;;;-50
2020/08/16 04:28:27;;;;;;;2.12;1.94;;;;;;;23.49;71.06;99973.19;;;;-50
2020/08/16 04:31:08;;;;;;;2.12;2.02;;;;;;;23.48;71.06;99970.84;;;;-51
2020/08/16 04:34:09;;;;;;;1.95;1.81;;;;;;;23.48;71.10;99976.64;;;;-50
2020/08/16 04:37:08;;;;;;;2.30;1.93;;;;;;;23.48;71.06;99977.45;;;;-50
2020/08/16 04:40:09;;;;;;;2.01;1.91;;;;;;;23.48;71.03;99973.63;;;;-50
2020/08/16 04:43:09;;;;;;;2.03;1.90;;;;;;;23.49;71.05;99968.53;;;;-51
2020/08/16 04:46:08;;;;;;;2.27;2.07;;;;;;;23.48;71.09;99966.09;;;;-51
2020/08/16 04:49:08;;;;;;;2.16;1.90;;;;;;;23.48;71.03;99970.27;;;;-52
2020/08/16 04:52:08;;;;;;;2.03;1.93;;;;;;;23.48;71.12;99968.07;;;;-50
2020/08/16 04:55:09;;;;;;;2.15;2.01;;;;;;;23.48;71.11;99967.98;;;;-51
2020/08/16 04:58:08;;;;;;;1.97;1.87;;;;;;;23.47;71.01;99962.93;;;;-51
2020/08/16 05:01:08;;;;;;;1.93;1.83;;;;;;;23.47;71.12;99957.61;;;;-51
2020/08/16 05:04:08;;;;;;;1.93;1.83;;;;;;;23.46;71.02;99955.73;;;;-52
2020/08/16 05:07:08;;;;;;;1.93;1.83;;;;;;;23.47;71.05;99958.75;;;;-50
2020/08/16 05:10:09;;;;;;;2.17;1.99;;;;;;;23.47;71.10;99959.73;;;;-50
2020/08/16 05:13:09;;;;;;;2.00;1.90;;;;;;;23.46;71.10;99956.72;;;;-50
2020/08/16 05:16:08;;;;;;;1.88;1.78;;;;;;;23.46;71.08;99953.63;;;;-50
2020/08/16 05:19:08;;;;;;;2.16;1.98;;;;;;;23.46;71.06;99956.31;;;;-50
2020/08/16 05:22:08;;;;;;;2.03;1.93;;;;;;;23.46;71.05;99953.77;;;;-51
2020/08/16 05:25:09;;;;;;;1.85;1.75;;;;;;;23.46;71.04;99951.90;;;;-51
2020/08/16 05:28:08;;;;;;;2.19;1.99;;;;;;;23.46;71.10;99952.64;;;;-51
2020/08/16 05:31:08;;;;;;;1.99;1.89;;;;;;;23.45;71.06;99944.41;;;;-51
2020/08/16 05:34:08;;;;;;;2.70;1.99;;;;;;;23.45;71.08;99947.19;;;;-51
2020/08/16 05:37:08;;;;;;;2.11;1.96;;;;;;;23.45;71.09;99942.84;;;;-51
2020/08/16 05:40:08;;;;;;;2.00;1.89;;;;;;;23.45;71.06;99944.56;;;;-50
2020/08/16 05:44:08;;;;;;;2.01;1.88;;;;;;;23.45;71.08;99942.28;;;;-50
2020/08/16 05:47:08;;;;;;;2.00;1.90;;;;;;;23.45;71.06;99941.52;;;;-51
2020/08/16 05:50:09;;;;;;;1.87;1.77;;;;;;;23.45;71.10;99937.53;;;;-50
2020/08/16 05:53:08;;;;;;;1.80;1.70;;;;;;;23.45;71.08;99938.91;;;;-50
2020/08/16 05:56:08;;;;;;;2.00;1.90;;;;;;;23.45;71.06;99938.84;;;;-50
2020/08/16 05:59:08;;;;;;;1.95;1.85;;;;;;;23.44;71.06;99946.45;;;;-51
2020/08/16 06:02:08;;;;;;;2.10;1.94;;;;;;;23.44;71.02;99943.69;;;;-51
2020/08/16 06:05:08;;;;;;;1.77;1.67;;;;;;;23.44;71.06;99949.55;;;;-51
2020/08/16 06:08:08;;;;;;;2.15;1.70;;;;;;;23.44;71.03;99949.09;;;;-51
2020/08/16 06:11:09;;;;;;;5.03;2.20;;;;;;;23.44;70.94;99953.90;;;;-51
2020/08/16 06:14:08;;;;;;;3.10;2.12;;;;;;;23.44;71.02;99951.19;;;;-51
2020/08/16 06:17:08;;;;;;;2.26;2.00;;;;;;;23.44;71.04;99948.75;;;;-50
2020/08/16 06:20:09;;;;;;;2.04;1.90;;;;;;;23.44;71.04;99948.42;;;;-51
2020/08/16 06:23:08;;;;;;;1.87;1.77;;;;;;;23.43;71.05;99948.86;;;;-51
2020/08/16 06:26:08;;;;;;;2.05;1.94;;;;;;;23.44;71.10;99951.62;;;;-51
2020/08/16 06:29:08;;;;;;;2.10;1.99;;;;;;;23.43;71.02;99951.16;;;;-50
2020/08/16 06:32:08;;;;;;;2.07;1.97;;;;;;;23.43;71.09;99956.05;;;;-51
2020/08/16 06:35:08;;;;;;;1.94;1.84;;;;;;;23.43;71.09;99956.95;;;;-51
2020/08/16 06:38:08;;;;;;;2.34;2.14;;;;;;;23.42;71.11;99955.73;;;;-51
2020/08/16 06:41:09;;;;;;;1.98;1.88;;;;;;;23.43;71.09;99955.30;;;;-51
2020/08/16 06:44:08;;;;;;;2.09;1.99;;;;;;;23.43;71.12;99958.66;;;;-50
2020/08/16 06:47:08;;;;;;;2.14;2.04;;;;;;;23.42;71.07;99960.41;;;;-50
2020/08/16 06:50:08;;;;;;;2.10;2.00;;;;;;;23.41;71.16;99956.91;;;;-52
2020/08/16 06:53:08;;;;;;;2.07;1.88;;;;;;;23.42;71.10;99958.68;;;;-51
2020/08/16 06:56:08;;;;;;;8.29;2.19;;;;;;;23.42;71.14;99958.61;;;;-50
2020/08/16 06:59:08;;;;;;;1.99;1.89;;;;;;;23.41;71.20;99962.71;;;;-52
2020/08/16 07:02:08;;;;;;;2.39;2.19;;;;;;;23.42;71.11;99966.30;;;;-51
2020/08/16 07:05:08;;;;;;;2.17;2.05;;;;;;;23.42;71.12;99972.27;;;;-50
2020/08/16 07:08:09;;;;;;;2.35;2.07;;;;;;;23.42;71.12;99973.41;;;;-50
2020/08/16 07:11:08;;;;;;;2.08;1.98;;;;;;;23.41;71.10;99971.05;;;;-50
2020/08/16 07:14:09;;;;;;;3.07;2.15;;;;;;;23.41;71.16;99971.63;;;;-50
2020/08/16 07:17:09;;;;;;;2.28;2.10;;;;;;;23.41;71.17;99972.02;;;;-51
2020/08/16 07:20:08;;;;;;;2.30;2.13;;;;;;;23.41;71.17;99970.05;;;;-51
2020/08/16 07:23:08;;;;;;;2.12;2.02;;;;;;;23.41;71.13;99970.48;;;;-51
2020/08/16 07:26:08;;;;;;;2.38;2.17;;;;;;;23.41;71.14;99972.67;;;;-50
2020/08/16 07:29:08;;;;;;;2.16;2.04;;;;;;;23.40;71.14;99969.09;;;;-51
2020/08/16 07:32:08;;;;;;;2.20;2.10;;;;;;;23.40;71.15;99969.98;;;;-51
2020/08/16 07:35:08;;;;;;;2.35;2.15;;;;;;;23.40;71.15;99975.22;;;;-50
2020/08/16 07:38:08;;;;;;;2.32;2.12;;;;;;;23.40;71.17;99971.88;;;;-50
2020/08/16 07:41:08;;;;;;;2.27;2.09;;;;;;;23.40;71.16;99969.84;;;;-50
2020/08/16 07:44:08;;;;;;;2.00;1.90;;;;;;;23.40;71.18;99964.77;;;;-50
2020/08/16 07:47:08;;;;;;;2.17;2.07;;;;;;;23.40;71.15;99964.86;;;;-51
2020/08/16 07:50:08;;;;;;;2.12;2.02;;;;;;;23.40;71.15;99958.64;;;;-51
2020/08/16 07:53:08;;;;;;;2.23;2.07;;;;;;;23.40;71.12;99960.28;;;;-51
2020/08/16 07:56:08;;;;;;;2.25;2.11;;;;;;;23.39;71.17;99960.45;;;;-51
2020/08/16 07:59:09;;;;;;;2.42;2.19;;;;;;;23.40;71.16;99967.22;;;;-51
2020/08/16 08:02:08;;;;;;;2.21;2.09;;;;;;;23.40;71.16;99961.50;;;;-50
2020/08/16 08:05:08;;;;;;;2.26;2.08;;;;;;;23.40;71.14;99962.23;;;;-51
2020/08/16 08:08:08;;;;;;;2.45;2.25;;;;;;;23.39;71.12;99955.39;;;;-50
2020/08/16 08:11:08;;;;;;;2.23;2.00;;;;;;;23.40;71.18;99958.39;;;;-51
2020/08/16 08:14:08;;;;;;;2.47;2.15;;;;;;;23.42;71.16;99958.11;;;;-51
2020/08/16 08:17:08;;;;;;;5.57;2.25;;;;;;;23.42;71.14;99953.14;;;;-51
2020/08/16 08:20:08;;;;;;;5.18;2.27;;;;;;;23.41;71.04;99947.66;;;;-51
2020/08/16 08:23:08;;;;;;;4.05;2.23;;;;;;;23.41;71.02;99946.03;;;;-51
2020/08/16 08:26:08;;;;;;;2.11;2.01;;;;;;;23.42;71.07;99947.91;;;;-51
2020/08/16 08:29:08;;;;;;;2.11;2.00;;;;;;;23.41;71.07;99948.47;;;;-51
2020/08/16 08:32:08;;;;;;;2.14;1.94;;;;;;;23.40;71.21;99945.72;;;;-43
2020/08/16 08:35:08;;;;;;;5.46;2.33;;;;;;;23.43;71.37;99948.27;;;;-46
2020/08/16 08:38:08;;;;;;;8.31;2.39;;;;;;;23.44;71.54;99949.31;;;;-44
2020/08/16 08:41:09;;;;;;;5.09;2.26;;;;;;;23.46;71.53;99949.14;;;;-48
2020/08/16 08:44:08;;;;;;;8.96;2.56;;;;;;;23.48;71.69;99943.28;;;;-47
2020/08/16 08:47:09;;;;;;;3.02;2.35;;;;;;;23.50;71.67;99944.06;;;;-50
2020/08/16 08:50:08;;;;;;;5.70;2.39;;;;;;;23.52;71.75;99938.31;;;;-47
2020/08/16 08:53:08;;;;;;;3.17;2.35;;;;;;;23.53;71.67;99931.74;;;;-44
2020/08/16 08:56:08;;;;;;;4.01;2.34;;;;;;;23.54;71.77;99929.84;;;;-56
2020/08/16 08:59:08;;;;;;;5.03;2.54;;;;;;;23.55;71.70;99930.47;;;;-47
2020/08/16 09:02:08;;;;;;;5.97;2.38;;;;;;;23.58;72.24;99929.20;;;;-56
2020/08/16 09:05:08;;;;;;;8.63;2.87;;;;;;;23.58;71.96;99927.73;;;;-56
2020/08/16 09:08:08;;;;;;;5.23;2.41;;;;;;;23.60;72.06;99932.19;;;;-45
2020/08/16 09:11:08;;;;;;;6.11;2.70;;;;;;;23.61;71.97;99929.04;;;;-52
2020/08/16 09:14:08;;;;;;;4.48;2.56;;;;;;;23.62;72.01;99928.64;;;;-51
2020/08/16 09:17:08;;;;;;;4.40;2.67;;;;;;;23.64;71.99;99926.03;;;;-46
2020/08/16 09:20:08;;;;;;;5.09;2.77;;;;;;;23.64;71.97;99923.92;;;;-46
2020/08/16 09:23:08;;;;;;;5.32;2.79;;;;;;;23.65;72.15;99915.22;;;;-49
2020/08/16 09:26:09;;;;;;;4.51;2.51;;;;;;;23.66;72.11;99910.70;;;;-58
2020/08/16 09:29:08;;;;;;;4.27;2.65;;;;;;;23.67;72.02;99914.36;;;;-46
2020/08/16 09:32:08;;;;;;;6.41;2.65;;;;;;;23.68;72.10;99910.74;;;;-56
2020/08/16 09:35:08;;;;;;;4.33;2.63;;;;;;;23.68;72.04;99909.03;;;;-49
2020/08/16 09:38:08;;;;;;;4.38;2.63;;;;;;;23.69;72.02;99903.19;;;;-53
2020/08/16 09:41:08;;;;;;;6.53;2.53;;;;;;;23.70;71.96;99905.64;;;;-44
2020/08/16 09:44:08;;;;;;;2.83;2.39;;;;;;;23.71;71.91;99905.62;;;;-47
2020/08/16 09:47:08;;;;;;;5.02;2.61;;;;;;;23.72;71.90;99902.58;;;;-48
2020/08/16 09:50:08;;;;;;;6.19;2.76;;;;;;;23.73;71.94;99907.53;;;;-51
2020/08/16 09:53:09;;;;;;;11.59;2.68;;;;;;;23.73;72.00;99904.51;;;;-58
2020/08/16 09:56:08;;;;;;;5.64;2.77;;;;;;;23.75;71.95;99906.03;;;;-55
2020/08/16 09:59:08;;;;;;;6.35;2.67;;;;;;;23.76;71.98;99903.96;;;;-48
2020/08/16 10:02:08;;;;;;;5.37;2.74;;;;;;;23.76;71.98;99902.50;;;;-50
2020/08/16 10:05:08;;;;;;;7.22;2.85;;;;;;;23.78;71.96;99899.38;;;;-45
2020/08/16 10:08:08;;;;;;;5.27;2.69;;;;;;;23.78;71.99;99897.81;;;;-48
2020/08/16 10:11:08;;;;;;;5.35;2.93;;;;;;;23.79;72.02;99895.48;;;;-57
2020/08/16 10:14:08;;;;;;;7.52;2.77;;;;;;;23.80;71.88;99894.43;;;;-57
2020/08/16 10:17:08;;;;;;;5.13;2.65;;;;;;;23.80;71.99;99883.62;;;;-48
2020/08/16 10:20:08;;;;;;;20.12;3.55;;;;;;;23.83;72.20;99883.33;;;;-60
2020/08/16 10:23:08;;;;;;;6.35;2.90;;;;;;;23.87;71.82;99881.35;;;;-47
2020/08/16 10:26:08;;;;;;;6.24;3.05;;;;;;;23.88;71.95;99877.70;;;;-58
2020/08/16 10:29:08;;;;;;;6.99;2.84;;;;;;;23.88;71.75;99875.90;;;;-47
2020/08/16 10:32:08;;;;;;;7.40;2.84;;;;;;;23.89;71.93;99876.98;;;;-53
2020/08/16 10:35:08;;;;;;;6.98;3.01;;;;;;;23.88;71.76;99870.66;;;;-49
2020/08/16 10:38:08;;;;;;;5.71;2.91;;;;;;;23.90;71.90;99871.69;;;;-51
2020/08/16 10:41:08;;;;;;;5.72;2.91;;;;;;;23.90;71.66;99871.11;;;;-49
2020/08/16 10:44:08;;;;;;;5.65;2.99;;;;;;;23.90;71.80;99866.13;;;;-46
2020/08/16 10:47:08;;;;;;;6.36;2.77;;;;;;;23.92;71.69;99866.84;;;;-55
2020/08/16 10:50:08;;;;;;;6.75;2.96;;;;;;;23.92;71.82;99865.94;;;;-47
2020/08/16 10:53:08;;;;;;;7.54;2.88;;;;;;;23.91;71.85;99861.53;;;;-49
2020/08/16 10:56:08;;;;;;;7.17;2.67;;;;;;;23.92;71.51;99856.44;;;;-50
2020/08/16 10:59:09;;;;;;;3.74;2.50;;;;;;;23.91;71.46;99854.33;;;;-49
2020/08/16 11:02:08;;;;;;;5.80;2.85;;;;;;;23.90;71.47;99853.10;;;;-50
2020/08/16 11:05:08;;;;;;;5.08;2.58;;;;;;;23.89;71.37;99852.77;;;;-50
2020/08/16 11:08:08;;;;;;;5.11;2.56;;;;;;;23.88;71.32;99849.33;;;;-49
2020/08/16 11:11:08;;;;;;;4.59;2.65;;;;;;;23.87;71.32;99855.09;;;;-49
2020/08/16 11:14:08;;;;;;;12.68;3.21;;;;;;;23.85;71.66;99848.90;;;;-49
2020/08/16 11:17:08;;;;;;;7.78;2.92;;;;;;;23.84;71.51;99854.25;;;;-49
2020/08/16 11:20:08;;;;;;;4.81;2.86;;;;;;;23.85;71.45;99855.14;;;;-49
2020/08/16 11:23:08;;;;;;;8.88;2.55;;;;;;;23.84;71.29;99854.16;;;;-49
2020/08/16 11:26:09;;;;;;;6.30;2.85;;;;;;;23.83;71.31;99853.05;;;;-49
2020/08/16 11:29:08;;;;;;;4.29;2.55;;;;;;;23.81;71.24;99849.55;;;;-49
2020/08/16 11:32:09;;;;;;;6.37;2.73;;;;;;;23.81;71.22;99850.70;;;;-49
2020/08/16 11:35:09;;;;;;;4.54;2.78;;;;;;;23.80;71.14;99849.33;;;;-49
2020/08/16 11:38:08;;;;;;;5.63;2.65;;;;;;;23.79;71.22;99845.09;;;;-49
2020/08/16 11:41:08;;;;;;;6.19;2.85;;;;;;;23.79;71.10;99844.94;;;;-49
2020/08/16 11:44:08;;;;;;;3.85;2.74;;;;;;;23.79;71.08;99839.38;;;;-49
2020/08/16 11:47:08;;;;;;;4.57;2.71;;;;;;;23.78;71.06;99838.50;;;;-49
2020/08/16 11:50:08;;;;;;;4.45;2.72;;;;;;;23.77;71.02;99835.33;;;;-49
2020/08/16 11:53:08;;;;;;;4.59;2.71;;;;;;;23.76;70.99;99836.55;;;;-49
2020/08/16 11:56:08;;;;;;;4.05;2.69;;;;;;;23.76;71.03;99840.96;;;;-50
2020/08/16 11:59:08;;;;;;;5.91;2.82;;;;;;;23.75;71.48;99836.89;;;;-54
2020/08/16 12:02:08;;;;;;;4.01;2.76;;;;;;;23.76;71.42;99832.95;;;;-52
2020/08/16 12:05:08;;;;;;;7.97;2.93;;;;;;;23.78;72.79;99827.11;;;;-46
2020/08/16 12:08:08;;;;;;;9.57;3.25;;;;;;;23.80;71.92;99824.22;;;;-46
2020/08/16 12:11:08;;;;;;;7.79;3.03;;;;;;;23.82;71.94;99824.41;;;;-51
2020/08/16 12:14:08;;;;;;;10.95;3.17;;;;;;;23.83;71.92;99818.73;;;;-44
2020/08/16 12:17:08;;;;;;;7.89;3.10;;;;;;;23.84;72.00;99816.94;;;;-45
2020/08/16 12:20:08;;;;;;;9.73;3.13;;;;;;;23.85;72.10;99813.30;;;;-51
2020/08/16 12:23:08;;;;;;;8.81;3.25;;;;;;;23.88;72.28;99807.43;;;;-50
2020/08/16 12:26:08;;;;;;;10.98;3.38;;;;;;;23.88;72.16;99801.45;;;;-45
2020/08/16 12:29:08;;;;;;;8.47;3.35;;;;;;;23.88;72.23;99796.35;;;;-45
2020/08/16 12:32:09;;;;;;;12.75;3.29;;;;;;;23.90;72.22;99794.20;;;;-47
2020/08/16 12:35:08;;;;;;;7.76;3.05;;;;;;;23.91;72.31;99797.72;;;;-46
2020/08/16 12:38:09;;;;;;;8.99;3.53;;;;;;;23.92;72.15;99791.88;;;;-46
2020/08/16 12:41:08;;;;;;;9.89;3.29;;;;;;;23.93;72.13;99787.42;;;;-45
2020/08/16 12:44:08;;;;;;;9.48;3.56;;;;;;;23.94;72.23;99787.74;;;;-55
2020/08/16 12:47:08;;;;;;;9.87;3.29;;;;;;;23.94;72.13;99788.73;;;;-44
2020/08/16 12:50:08;;;;;;;7.77;3.18;;;;;;;23.95;72.05;99788.20;;;;-49
2020/08/16 12:53:08;;;;;;;7.26;3.17;;;;;;;23.96;72.04;99775.25;;;;-50
2020/08/16 12:56:08;;;;;;;8.45;3.07;;;;;;;23.96;72.08;99771.22;;;;-49
2020/08/16 12:59:08;;;;;;;7.30;3.25;;;;;;;23.96;71.89;99766.80;;;;-50
2020/08/16 13:02:08;;;;;;;8.25;3.28;;;;;;;23.97;71.95;99761.24;;;;-45
2020/08/16 13:05:08;;;;;;;7.54;3.22;;;;;;;23.97;71.91;99763.27;;;;-50
2020/08/16 13:08:09;;;;;;;9.25;3.03;;;;;;;23.97;71.92;99759.94;;;;-46
2020/08/16 13:11:08;;;;;;;6.21;3.16;;;;;;;23.97;71.86;99759.44;;;;-45
2020/08/16 13:14:08;;;;;;;6.48;2.90;;;;;;;23.98;71.80;99752.18;;;;-45
2020/08/16 13:17:08;;;;;;;5.07;3.13;;;;;;;24.00;71.81;99758.45;;;;-52
2020/08/16 13:20:08;;;;;;;6.26;3.09;;;;;;;24.00;71.78;99751.66;;;;-47
2020/08/16 13:23:08;;;;;;;5.40;3.11;;;;;;;24.00;71.89;99754.44;;;;-47
2020/08/16 13:26:08;;;;;;;7.82;3.10;;;;;;;24.00;71.90;99748.30;;;;-55
2020/08/16 13:29:08;;;;;;;4.82;3.14;;;;;;;24.01;71.91;99746.32;;;;-49
2020/08/16 13:32:08;;;;;;;6.00;3.03;;;;;;;24.02;71.84;99744.76;;;;-48
2020/08/16 13:35:08;;;;;;;5.80;2.88;;;;;;;24.02;71.87;99739.89;;;;-44
2020/08/16 13:38:09;;;;;;;6.14;3.15;;;;;;;24.02;71.90;99737.46;;;;-47
2020/08/16 13:41:08;;;;;;;6.68;3.11;;;;;;;24.02;71.78;99736.72;;;;-49
2020/08/16 13:44:08;;;;;;;4.14;3.19;;;;;;;24.01;71.74;99734.95;;;;-50
2020/08/16 13:47:08;;;;;;;11.56;3.40;;;;;;;24.02;71.64;99732.78;;;;-52
2020/08/16 13:50:08;;;;;;;5.37;3.27;;;;;;;24.02;71.58;99732.45;;;;-49
2020/08/16 13:53:08;;;;;;;4.33;3.41;;;;;;;24.03;71.58;99732.11;;;;-48
2020/08/16 13:56:08;;;;;;;6.49;2.99;;;;;;;24.02;71.56;99727.88;;;;-49
2020/08/16 13:59:08;;;;;;;5.45;3.33;;;;;;;24.02;71.59;99726.73;;;;-48
2020/08/16 14:02:08;;;;;;;8.56;3.42;;;;;;;24.02;71.64;99725.26;;;;-44
2020/08/16 14:05:08;;;;;;;6.23;3.10;;;;;;;24.02;71.62;99721.40;;;;-47
2020/08/16 14:08:08;;;;;;;4.18;3.27;;;;;;;24.01;71.60;99719.89;;;;-46
2020/08/16 14:11:08;;;;;;;5.05;3.21;;;;;;;24.01;71.58;99718.00;;;;-46
2020/08/16 14:14:08;;;;;;;4.07;3.09;;;;;;;24.00;71.61;99716.21;;;;-46
2020/08/16 14:17:08;;;;;;;8.85;3.36;;;;;;;23.99;71.58;99714.13;;;;-46
2020/08/16 14:20:08;;;;;;;5.31;3.09;;;;;;;23.99;71.60;99715.34;;;;-46
2020/08/16 14:23:08;;;;;;;5.58;3.05;;;;;;;23.99;71.54;99709.28;;;;-46
2020/08/16 14:26:08;;;;;;;4.16;2.89;;;;;;;23.98;71.44;99699.63;;;;-45
2020/08/16 14:29:08;;;;;;;5.18;3.31;;;;;;;23.98;71.43;99696.80;;;;-46
2020/08/16 14:32:08;;;;;;;3.49;2.92;;;;;;;23.97;71.40;99693.06;;;;-46
2020/08/16 14:35:08;;;;;;;4.79;3.06;;;;;;;23.97;71.35;99694.19;;;;-46
2020/08/16 14:38:08;;;;;;;4.99;2.99;;;;;;;23.95;71.60;99690.25;;;;-44
2020/08/16 14:41:08;;;;;;;5.09;3.11;;;;;;;23.97;71.52;99687.31;;;;-49
2020/08/16 14:44:09;;;;;;;7.50;3.17;;;;;;;23.97;71.51;99681.51;;;;-46
2020/08/16 14:47:09;;;;;;;7.23;3.08;;;;;;;23.98;71.62;99676.58;;;;-44
2020/08/16 14:50:08;;;;;;;6.91;3.29;;;;;;;23.99;71.54;99676.47;;;;-47
2020/08/16 14:53:08;;;;;;;5.46;2.91;;;;;;;24.00;71.47;99672.11;;;;-48
2020/08/16 14:56:08;;;;;;;4.25;2.87;;;;;;;24.01;71.55;99671.02;;;;-49
2020/08/16 14:59:08;;;;;;;6.38;3.18;;;;;;;24.02;71.54;99665.60;;;;-49
2020/08/16 15:02:08;;;;;;;5.82;3.09;;;;;;;24.03;71.49;99665.65;;;;-47
2020/08/16 15:05:08;;;;;;;4.14;3.18;;;;;;;24.03;71.59;99664.35;;;;-58
2020/08/16 15:08:08;;;;;;;5.88;3.19;;;;;;;24.04;71.49;99666.30;;;;-45
2020/08/16 15:11:08;;;;;;;4.97;3.06;;;;;;;24.04;71.59;99664.98;;;;-43
2020/08/16 15:14:08;;;;;;;4.69;3.03;;;;;;;24.04;71.50;99665.22;;;;-46
2020/08/16 15:17:08;;;;;;;6.95;3.03;;;;;;;24.05;71.59;99659.28;;;;-44
2020/08/16 15:20:08;;;;;;;4.15;2.93;;;;;;;24.05;71.47;99651.19;;;;-43
2020/08/16 15:23:08;;;;;;;4.55;3.03;;;;;;;24.05;71.55;99649.80;;;;-46
2020/08/16 15:26:08;;;;;;;5.54;3.00;;;;;;;24.06;71.55;99645.34;;;;-53
2020/08/16 15:29:08;;;;;;;4.90;2.85;;;;;;;24.07;71.56;99640.01;;;;-50
2020/08/16 15:32:08;;;;;;;6.63;3.11;;;;;;;24.07;71.56;99639.83;;;;-55
2020/08/16 15:35:08;;;;;;;6.87;2.92;;;;;;;24.08;71.60;99641.28;;;;-53
2020/08/16 15:38:08;;;;;;;5.57;2.92;;;;;;;24.10;71.56;99642.05;;;;-49
2020/08/16 15:41:08;;;;;;;6.85;3.13;;;;;;;24.10;71.43;99640.27;;;;-52
2020/08/16 15:44:08;;;;;;;5.07;2.83;;;;;;;24.11;71.44;99640.30;;;;-49
2020/08/16 15:47:08;;;;;;;5.81;2.73;;;;;;;24.12;71.36;99642.09;;;;-48
2020/08/16 15:50:08;;;;;;;4.73;2.99;;;;;;;24.13;71.37;99641.25;;;;-46
2020/08/16 15:53:08;;;;;;;5.13;3.05;;;;;;;24.13;71.41;99642.77;;;;-47
2020/08/16 15:56:08;;;;;;;4.91;2.68;;;;;;;24.13;71.43;99642.13;;;;-45
2020/08/16 15:59:08;;;;;;;5.57;3.02;;;;;;;24.14;71.48;99644.82;;;;-43
2020/08/16 16:02:08;;;;;;;4.86;2.81;;;;;;;24.15;71.45;99640.45;;;;-44
2020/08/16 16:05:08;;;;;;;7.64;3.01;;;;;;;24.16;71.39;99639.55;;;;-43
2020/08/16 16:08:08;;;;;;;5.71;2.78;;;;;;;24.15;71.47;99643.22;;;;-47
2020/08/16 16:11:08;;;;;;;3.66;2.81;;;;;;;24.16;71.40;99641.73;;;;-47
2020/08/16 16:14:08;;;;;;;5.06;2.92;;;;;;;24.16;71.42;99637.08;;;;-51
2020/08/16 16:17:08;;;;;;;4.16;2.71;;;;;;;24.16;71.30;99636.91;;;;-45
2020/08/16 16:20:08;;;;;;;4.96;2.81;;;;;;;24.17;71.49;99630.73;;;;-45
2020/08/16 16:23:08;;;;;;;5.33;2.93;;;;;;;24.17;71.23;99627.95;;;;-50
2020/08/16 16:26:08;;;;;;;3.68;2.65;;;;;;;24.17;71.43;99620.91;;;;-50
2020/08/16 16:29:08;;;;;;;4.99;2.91;;;;;;;24.16;71.18;99615.39;;;;-50
2020/08/16 16:32:08;;;;;;;5.10;2.59;;;;;;;24.15;71.20;99608.83;;;;-50
2020/08/16 16:35:08;;;;;;;5.10;2.67;;;;;;;24.15;71.22;99602.44;;;;-50
2020/08/16 16:38:08;;;;;;;5.71;2.95;;;;;;;24.14;71.23;99601.11;;;;-50
2020/08/16 16:41:08;;;;;;;4.07;2.53;;;;;;;24.13;71.20;99598.24;;;;-50
2020/08/16 16:44:08;;;;;;;3.56;2.80;;;;;;;24.13;71.20;99599.06;;;;-50
2020/08/16 16:47:08;;;;;;;5.00;2.68;;;;;;;24.12;71.11;99593.95;;;;-50
2020/08/16 16:50:08;;;;;;;7.25;2.79;;;;;;;24.12;71.18;99593.62;;;;-50
2020/08/16 16:53:08;;;;;;;4.68;2.80;;;;;;;24.12;71.12;99598.96;;;;-50
2020/08/16 16:56:08;;;;;;;3.61;2.62;;;;;;;24.11;71.09;99600.36;;;;-51